Nearby METAR Reports

 

EGNX - East Midlands, United Kingdom
Distance from station: W 5mi, 8km
Updated: 18/01/2021 22:50
Rain, Mostly cloudy
Rain, Mostly cloudy
 Wind from SSW
Wind: SSW 17 mph , 28 km/h
Temperature: 7°C
Wind Chill: 3°C
Dew Point: 7°C
Humidity: 100%
Barometer: 1007 hPa
Summary: Rain
Clouds: Mostly cloudy
Visibility: 4 miles , 6 km
Cloud details: Mostly cloudy 122 m
2021/01/18 22:50 EGNX 182250Z 20015KT 6000 RA BKN004 07/07 Q1007
EGBB - Birmingham Airpo, United Kingdom
Distance from station: SW 34mi, 55km
Updated: 18/01/2021 22:50
Overcast
Overcast
 Wind from SSW
Wind: SSW 10 mph , 17 km/h
Temperature: 9°C
Wind Chill: 7°C
Dew Point: 8°C
Humidity: 94%
Barometer: 1008 hPa
Clouds: Overcast
Visibility: 6 miles , 10 km
Cloud details: Overcast 152 m
2021/01/18 22:50 EGBB 182250Z 21009KT 140V240 9999 OVC005 09/08 Q1008
 
EGXP - Scampton RAF, United Kingdom
Distance from station: NE 41mi, 66km
Updated: 18/01/2021 21:50
Mostly cloudy
Mostly cloudy
 Wind from SW
Wind: SW 18 mph , 30 km/h
Temperature: 7°C
Wind Chill: 3°C
Dew Point: 6°C
Humidity: 93%
Barometer: 1008 hPa
Clouds: Mostly cloudy
Visibility: 6 miles , 10 km
Cloud details: Mostly cloudy 244 m
2021/01/18 21:50 EGXP 182150Z AUTO 22016KT 9999 // BKN008/// 07/06 Q1008
EGCN - Doncaster Sheffi, United Kingdom
Distance from station: N 46mi, 74km
Updated: 18/01/2021 22:50
Light rain, Mostly cloudy
Light rain, Mostly cloudy
 Wind from SSW
Wind: SSW 15 mph , 24 km/h
Temperature: 7°C
Wind Chill: 3°C
Dew Point: 7°C
Humidity: 100%
Barometer: 1007 hPa
Summary: Light rain
Clouds: Mostly cloudy
Visibility: 6 miles , 10 km
Cloud details: Partly cloudy 244 m
Mostly cloudy 1097 m
2021/01/18 22:50 EGCN 182250Z 20013KT 9999 -RA SCT008 BKN036 07/07 Q1007
 
EGPB - Sumburgh, United Kingdom
Distance from station: N 491mi, 791km
Updated: 18/01/2021 22:50
Mostly cloudy
Mostly cloudy
 Wind from W
Wind: W 21 mph , 33 km/h
Temperature: 5°C
Wind Chill: 0°C
Dew Point: 3°C
Humidity: 87%
Barometer: 995 hPa
Clouds: Mostly cloudy
Visibility: 6 miles , 10 km
Cloud details: Few Clouds 427 m
Partly cloudy 945 m
Mostly cloudy 1372 m
2021/01/18 22:50 EGPB 182250Z AUTO 26018KT 9999 FEW014/// SCT031/// BKN045/// 05/03 Q0995 RERA
EGPO - Stornoway, United Kingdom
Distance from station: NW 561mi, 903km
Updated: 18/01/2021 22:50
Few Clouds
Few Clouds
 Wind from SW
Wind: SW 7 mph , 11 km/h
Temperature: 2°C
Wind Chill: -1°C
Dew Point: 0°C
Humidity: 87%
Barometer: 999 hPa
Clouds: Few Clouds
Visibility: 6 miles , 10 km
Cloud details: Few Clouds 488 m
2021/01/18 22:50 EGPO 182250Z 22006KT 9999 FEW016 02/00 Q0999